createdAt,value
2022-11-07T00:04:02.290Z,2.50
2022-11-07T00:14:04.869Z,2.25
2022-11-07T00:24:09.636Z,2.65
2022-11-07T00:34:12.577Z,2.65
2022-11-07T00:44:16.678Z,2.60
2022-11-07T00:54:19.283Z,2.55
2022-11-07T01:04:40.576Z,2.42
2022-11-07T01:14:43.224Z,2.50
2022-11-07T01:24:47.508Z,2.35
2022-11-07T01:34:50.133Z,2.60
2022-11-07T01:44:57.174Z,2.40
2022-11-07T01:55:05.537Z,2.53
2022-11-07T02:05:10.434Z,2.38
2022-11-07T02:15:13.332Z,2.20
2022-11-07T02:25:19.529Z,2.45
2022-11-07T02:35:37.869Z,2.45
2022-11-07T02:45:45.442Z,2.28
2022-11-07T02:55:48.136Z,2.45
2022-11-07T03:05:52.128Z,2.10
2022-11-07T03:15:55.972Z,2.10
2022-11-07T03:26:00.033Z,2.53
2022-11-07T03:36:02.787Z,2.60
2022-11-07T03:46:07.121Z,2.65
2022-11-07T03:56:11.669Z,2.47
2022-11-07T04:06:15.613Z,2.67
2022-11-07T04:16:37.449Z,2.58
2022-11-07T04:26:58.723Z,1.85
2022-11-07T04:37:01.324Z,2.40
2022-11-07T04:47:05.719Z,2.10
2022-11-07T04:57:08.345Z,2.30
2022-11-07T05:07:12.349Z,2.13
2022-11-07T05:17:16.250Z,1.90
2022-11-07T05:27:21.720Z,1.77
2022-11-07T05:37:24.384Z,2.05
2022-11-07T05:47:28.546Z,1.77
2022-11-07T05:57:31.455Z,3.00
2022-11-07T06:07:37.049Z,2.28
2022-11-07T06:17:40.328Z,2.67
2022-11-07T06:27:44.278Z,2.92
2022-11-07T06:37:46.940Z,2.58
2022-11-07T06:47:50.890Z,2.70
2022-11-07T06:57:53.554Z,3.42
2022-11-07T07:07:57.815Z,2.58
2022-11-07T07:18:01.319Z,2.78
2022-11-07T07:28:05.448Z,3.08
2022-11-07T07:38:08.133Z,3.13
2022-11-07T07:48:12.106Z,2.83
2022-11-07T07:58:15.116Z,2.10
2022-11-07T08:08:19.053Z,3.22
2022-11-07T08:18:22.743Z,2.90
2022-11-07T08:28:28.496Z,2.50
2022-11-07T08:38:32.522Z,2.83
2022-11-07T08:48:36.593Z,2.90
2022-11-07T08:58:39.243Z,2.42
2022-11-07T09:08:43.284Z,2.10
2022-11-07T09:18:46.454Z,2.50
2022-11-07T09:28:53.926Z,2.15
2022-11-07T09:38:59.162Z,2.40
2022-11-07T09:49:11.343Z,2.45
2022-11-07T09:59:20.477Z,2.30
2022-11-07T10:09:35.613Z,2.30
2022-11-07T10:19:50.373Z,2.47
2022-11-07T10:29:56.215Z,2.65
2022-11-07T10:39:59.115Z,2.35
2022-11-07T10:50:17.735Z,3.33
2022-11-07T11:00:26.700Z,2.40
2022-11-07T11:10:31.585Z,2.50
2022-11-07T11:20:38.203Z,2.13
2022-11-07T11:30:43.072Z,2.67
2022-11-07T11:40:51.153Z,1.90
2022-11-07T11:50:59.315Z,2.30
2022-11-07T12:01:08.321Z,1.90
2022-11-07T12:11:21.106Z,2.60
2022-11-07T12:21:33.075Z,2.63
2022-11-07T12:31:48.818Z,3.08
2022-11-07T12:41:58.714Z,1.98
2022-11-07T12:52:12.393Z,2.20
2022-11-07T13:02:26.041Z,2.05
2022-11-07T13:12:35.569Z,2.42
2022-11-07T13:22:40.159Z,2.03
2022-11-07T13:32:46.064Z,2.13
2022-11-07T13:42:55.452Z,2.20
2022-11-07T13:53:02.509Z,2.03
2022-11-07T14:03:05.600Z,2.17
2022-11-07T14:13:12.483Z,2.03
2022-11-07T14:23:15.288Z,2.20
2022-11-07T14:33:21.403Z,2.20
2022-11-07T14:43:26.070Z,2.40
2022-11-07T14:53:34.133Z,2.40
2022-11-07T15:03:50.577Z,3.33
2022-11-07T15:13:55.031Z,2.47
2022-11-07T15:23:58.337Z,3.17
2022-11-07T15:34:03.885Z,2.22
2022-11-07T15:44:06.538Z,2.65
2022-11-07T15:54:13.115Z,2.50
2022-11-07T16:04:16.200Z,2.67
2022-11-07T16:14:42.789Z,2.80
2022-11-07T16:24:44.549Z,2.97
2022-11-07T16:34:48.630Z,2.55
2022-11-07T16:44:51.336Z,2.70
2022-11-07T16:54:55.385Z,3.42
2022-11-07T17:04:57.989Z,3.47
2022-11-07T17:15:01.957Z,3.20
2022-11-07T17:25:05.081Z,2.90
2022-11-07T17:35:31.266Z,3.35
2022-11-07T17:45:33.642Z,4.15
2022-11-07T17:55:37.625Z,3.78
2022-11-07T18:05:40.247Z,4.00
2022-11-07T18:15:44.193Z,3.85
2022-11-07T18:25:46.770Z,3.30
2022-11-07T18:35:50.741Z,3.83
2022-11-07T18:45:54.083Z,3.60
2022-11-07T18:56:03.081Z,3.33
2022-11-07T19:06:06.671Z,3.00
2022-11-07T19:16:14.314Z,3.40
2022-11-07T19:26:18.900Z,4.00
2022-11-07T19:36:23.592Z,3.03
2022-11-07T19:46:26.230Z,6.82
2022-11-07T19:56:32.277Z,7.95
2022-11-07T20:06:36.653Z,6.13
2022-11-07T20:16:40.632Z,5.18
2022-11-07T20:26:45.675Z,3.55
2022-11-07T20:36:52.505Z,2.17
2022-11-07T20:46:56.481Z,2.20
2022-11-07T20:57:00.457Z,2.08
2022-11-07T21:07:03.053Z,2.00
2022-11-07T21:17:07.469Z,2.92
2022-11-07T21:27:10.119Z,1.80
2022-11-07T21:37:14.056Z,2.70
2022-11-07T21:47:16.694Z,2.20
2022-11-07T21:57:21.091Z,1.58
2022-11-07T22:07:23.698Z,2.00
2022-11-07T22:17:27.736Z,1.70
2022-11-07T22:27:30.302Z,1.80
2022-11-07T22:37:34.274Z,1.52
2022-11-07T22:47:36.926Z,2.35
2022-11-07T22:57:42.888Z,1.85
2022-11-07T23:07:45.550Z,2.17
2022-11-07T23:17:49.628Z,1.90
2022-11-07T23:27:52.255Z,2.13
2022-11-07T23:37:56.265Z,1.85
2022-11-07T23:48:18.508Z,2.15
2022-11-07T23:58:40.740Z,2.10
